sensor_id;sensor_type;location;lat;lon;timestamp;P1;durP1;ratioP1;P2;durP2;ratioP2
2748;SDS011;1382;52.142;11.618;2024-03-06T00:08:45;18.90;;;9.63;;
2748;SDS011;1382;52.142;11.618;2024-03-06T00:11:47;17.90;;;10.80;;
2748;SDS011;1382;52.142;11.618;2024-03-06T00:19:30;18.00;;;10.10;;
2748;SDS011;1382;52.142;11.618;2024-03-06T00:21:30;13.87;;;8.90;;
2748;SDS011;1382;52.142;11.618;2024-03-06T00:27:29;17.37;;;10.60;;
2748;SDS011;1382;52.142;11.618;2024-03-06T00:30:34;17.73;;;8.73;;
2748;SDS011;1382;52.142;11.618;2024-03-06T00:34:17;17.33;;;11.20;;
2748;SDS011;1382;52.142;11.618;2024-03-06T00:54:40;13.97;;;9.97;;
2748;SDS011;1382;52.142;11.618;2024-03-06T01:00:21;18.53;;;9.97;;
2748;SDS011;1382;52.142;11.618;2024-03-06T01:03:26;15.03;;;9.40;;
2748;SDS011;1382;52.142;11.618;2024-03-06T01:09:42;21.67;;;11.33;;
2748;SDS011;1382;52.142;11.618;2024-03-06T01:12:54;14.73;;;9.50;;
2748;SDS011;1382;52.142;11.618;2024-03-06T01:19:00;14.97;;;9.50;;
2748;SDS011;1382;52.142;11.618;2024-03-06T01:25:36;14.37;;;9.53;;
2748;SDS011;1382;52.142;11.618;2024-03-06T01:28:43;17.77;;;10.60;;
2748;SDS011;1382;52.142;11.618;2024-03-06T01:32:09;13.97;;;9.50;;
2748;SDS011;1382;52.142;11.618;2024-03-06T01:35:19;13.93;;;9.13;;
2748;SDS011;1382;52.142;11.618;2024-03-06T01:38:31;16.80;;;9.70;;
2748;SDS011;1382;52.142;11.618;2024-03-06T01:41:41;14.27;;;8.80;;
2748;SDS011;1382;52.142;11.618;2024-03-06T01:44:57;18.10;;;10.90;;
2748;SDS011;1382;52.142;11.618;2024-03-06T01:48:02;17.47;;;9.77;;
2748;SDS011;1382;52.142;11.618;2024-03-06T01:51:27;16.40;;;9.13;;
2748;SDS011;1382;52.142;11.618;2024-03-06T02:04:43;14.83;;;9.40;;
2748;SDS011;1382;52.142;11.618;2024-03-06T02:14:14;17.17;;;11.43;;
2748;SDS011;1382;52.142;11.618;2024-03-06T02:30:29;15.77;;;10.20;;
2748;SDS011;1382;52.142;11.618;2024-03-06T02:33:21;19.03;;;11.77;;
2748;SDS011;1382;52.142;11.618;2024-03-06T02:36:40;16.60;;;10.27;;
2748;SDS011;1382;52.142;11.618;2024-03-06T02:45:36;21.40;;;11.87;;
2748;SDS011;1382;52.142;11.618;2024-03-06T02:55:08;13.27;;;9.63;;
2748;SDS011;1382;52.142;11.618;2024-03-06T02:58:10;18.20;;;11.60;;
2748;SDS011;1382;52.142;11.618;2024-03-06T03:04:05;15.50;;;9.93;;
2748;SDS011;1382;52.142;11.618;2024-03-06T03:10:42;17.70;;;11.93;;
2748;SDS011;1382;52.142;11.618;2024-03-06T03:13:22;17.67;;;10.50;;
2748;SDS011;1382;52.142;11.618;2024-03-06T03:19:17;20.80;;;12.03;;
2748;SDS011;1382;52.142;11.618;2024-03-06T03:22:25;18.03;;;11.00;;
2748;SDS011;1382;52.142;11.618;2024-03-06T03:26:26;20.90;;;11.77;;
2748;SDS011;1382;52.142;11.618;2024-03-06T03:29:18;17.10;;;10.37;;
2748;SDS011;1382;52.142;11.618;2024-03-06T03:35:35;24.40;;;10.70;;
2748;SDS011;1382;52.142;11.618;2024-03-06T03:38:31;19.13;;;11.80;;
2748;SDS011;1382;52.142;11.618;2024-03-06T03:41:55;24.60;;;12.00;;
2748;SDS011;1382;52.142;11.618;2024-03-06T03:44:58;27.30;;;12.90;;
2748;SDS011;1382;52.142;11.618;2024-03-06T03:48:09;16.03;;;11.17;;
2748;SDS011;1382;52.142;11.618;2024-03-06T03:54:34;24.50;;;12.60;;
2748;SDS011;1382;52.142;11.618;2024-03-06T03:57:25;14.93;;;9.13;;
2748;SDS011;1382;52.142;11.618;2024-03-06T04:07:22;20.20;;;13.03;;
2748;SDS011;1382;52.142;11.618;2024-03-06T04:10:00;23.13;;;11.43;;
2748;SDS011;1382;52.142;11.618;2024-03-06T04:12:48;16.40;;;11.30;;
2748;SDS011;1382;52.142;11.618;2024-03-06T04:16:52;18.13;;;10.40;;
2748;SDS011;1382;52.142;11.618;2024-03-06T04:19:34;21.60;;;10.47;;
2748;SDS011;1382;52.142;11.618;2024-03-06T04:32:37;22.07;;;11.37;;
2748;SDS011;1382;52.142;11.618;2024-03-06T04:39:08;17.03;;;11.00;;
2748;SDS011;1382;52.142;11.618;2024-03-06T04:42:04;19.80;;;12.00;;
2748;SDS011;1382;52.142;11.618;2024-03-06T04:44:58;19.50;;;12.33;;
2748;SDS011;1382;52.142;11.618;2024-03-06T04:51:13;17.77;;;11.73;;
2748;SDS011;1382;52.142;11.618;2024-03-06T05:00:37;16.73;;;10.90;;
2748;SDS011;1382;52.142;11.618;2024-03-06T05:04:09;18.67;;;12.13;;
2748;SDS011;1382;52.142;11.618;2024-03-06T05:07:26;20.67;;;11.60;;
2748;SDS011;1382;52.142;11.618;2024-03-06T05:10:32;21.20;;;12.00;;
2748;SDS011;1382;52.142;11.618;2024-03-06T05:13:44;19.23;;;11.90;;
2748;SDS011;1382;52.142;11.618;2024-03-06T05:17:14;20.37;;;12.10;;
2748;SDS011;1382;52.142;11.618;2024-03-06T05:20:16;18.20;;;11.80;;
2748;SDS011;1382;52.142;11.618;2024-03-06T05:26:45;20.20;;;10.80;;
2748;SDS011;1382;52.142;11.618;2024-03-06T05:30:04;20.37;;;12.20;;
2748;SDS011;1382;52.142;11.618;2024-03-06T05:33:09;17.77;;;11.50;;
2748;SDS011;1382;52.142;11.618;2024-03-06T05:36:10;19.40;;;12.33;;
2748;SDS011;1382;52.142;11.618;2024-03-06T05:42:10;18.87;;;11.73;;
2748;SDS011;1382;52.142;11.618;2024-03-06T05:48:32;24.07;;;13.63;;
2748;SDS011;1382;52.142;11.618;2024-03-06T05:51:35;22.00;;;12.30;;
2748;SDS011;1382;52.142;11.618;2024-03-06T05:54:19;19.07;;;12.10;;
2748;SDS011;1382;52.142;11.618;2024-03-06T05:57:03;21.37;;;13.17;;
2748;SDS011;1382;52.142;11.618;2024-03-06T05:59:48;27.97;;;14.30;;
2748;SDS011;1382;52.142;11.618;2024-03-06T06:02:16;19.10;;;11.13;;
2748;SDS011;1382;52.142;11.618;2024-03-06T06:04:43;19.03;;;11.30;;
2748;SDS011;1382;52.142;11.618;2024-03-06T06:07:25;18.73;;;12.17;;
2748;SDS011;1382;52.142;11.618;2024-03-06T06:09:52;27.63;;;12.80;;
2748;SDS011;1382;52.142;11.618;2024-03-06T06:12:19;19.30;;;10.50;;
2748;SDS011;1382;52.142;11.618;2024-03-06T06:14:52;25.33;;;14.40;;
2748;SDS011;1382;52.142;11.618;2024-03-06T06:17:33;19.30;;;12.50;;
2748;SDS011;1382;52.142;11.618;2024-03-06T06:20:08;19.50;;;10.97;;
2748;SDS011;1382;52.142;11.618;2024-03-06T06:22:46;17.40;;;11.00;;
2748;SDS011;1382;52.142;11.618;2024-03-06T06:25:22;21.67;;;12.87;;
2748;SDS011;1382;52.142;11.618;2024-03-06T06:27:51;20.53;;;11.80;;
2748;SDS011;1382;52.142;11.618;2024-03-06T06:30:19;22.93;;;12.40;;
2748;SDS011;1382;52.142;11.618;2024-03-06T06:32:49;22.03;;;12.20;;
2748;SDS011;1382;52.142;11.618;2024-03-06T06:35:19;21.67;;;11.83;;
2748;SDS011;1382;52.142;11.618;2024-03-06T06:37:45;23.83;;;12.70;;
2748;SDS011;1382;52.142;11.618;2024-03-06T06:40:13;24.17;;;14.20;;
2748;SDS011;1382;52.142;11.618;2024-03-06T06:42:47;24.00;;;14.33;;
2748;SDS011;1382;52.142;11.618;2024-03-06T06:45:31;19.40;;;12.17;;
2748;SDS011;1382;52.142;11.618;2024-03-06T06:48:21;19.77;;;11.97;;
2748;SDS011;1382;52.142;11.618;2024-03-06T06:50:49;26.80;;;14.20;;
2748;SDS011;1382;52.142;11.618;2024-03-06T06:53:29;16.53;;;10.80;;
2748;SDS011;1382;52.142;11.618;2024-03-06T06:56:28;21.70;;;12.23;;
2748;SDS011;1382;52.142;11.618;2024-03-06T06:59:16;31.67;;;16.00;;
2748;SDS011;1382;52.142;11.618;2024-03-06T07:01:56;21.20;;;12.80;;
2748;SDS011;1382;52.142;11.618;2024-03-06T07:04:24;24.83;;;14.50;;
2748;SDS011;1382;52.142;11.618;2024-03-06T07:07:24;26.80;;;12.90;;
2748;SDS011;1382;52.142;11.618;2024-03-06T07:10:22;18.23;;;11.60;;
2748;SDS011;1382;52.142;11.618;2024-03-06T07:13:11;22.80;;;12.90;;
2748;SDS011;1382;52.142;11.618;2024-03-06T07:15:45;26.90;;;14.90;;
2748;SDS011;1382;52.142;11.618;2024-03-06T07:18:38;17.43;;;12.23;;
2748;SDS011;1382;52.142;11.618;2024-03-06T07:21:33;22.40;;;13.43;;
2748;SDS011;1382;52.142;11.618;2024-03-06T07:24:33;23.13;;;14.00;;
2748;SDS011;1382;52.142;11.618;2024-03-06T07:27:33;22.10;;;13.13;;
2748;SDS011;1382;52.142;11.618;2024-03-06T07:30:26;21.00;;;11.80;;
2748;SDS011;1382;52.142;11.618;2024-03-06T07:33:24;25.17;;;14.97;;
2748;SDS011;1382;52.142;11.618;2024-03-06T07:36:01;21.10;;;13.27;;
2748;SDS011;1382;52.142;11.618;2024-03-06T07:38:53;29.20;;;15.90;;
2748;SDS011;1382;52.142;11.618;2024-03-06T07:41:53;24.10;;;15.53;;
2748;SDS011;1382;52.142;11.618;2024-03-06T07:44:53;21.20;;;13.27;;
2748;SDS011;1382;52.142;11.618;2024-03-06T07:47:53;24.20;;;14.07;;
2748;SDS011;1382;52.142;11.618;2024-03-06T07:50:37;23.13;;;13.93;;
2748;SDS011;1382;52.142;11.618;2024-03-06T07:53:10;28.23;;;15.40;;
2748;SDS011;1382;52.142;11.618;2024-03-06T07:55:41;30.53;;;16.50;;
2748;SDS011;1382;52.142;11.618;2024-03-06T07:58:13;26.43;;;12.43;;
2748;SDS011;1382;52.142;11.618;2024-03-06T08:00:43;25.20;;;14.53;;
2748;SDS011;1382;52.142;11.618;2024-03-06T08:03:10;27.30;;;14.77;;
2748;SDS011;1382;52.142;11.618;2024-03-06T08:05:37;25.17;;;14.90;;
2748;SDS011;1382;52.142;11.618;2024-03-06T08:08:04;30.07;;;15.40;;
2748;SDS011;1382;52.142;11.618;2024-03-06T08:10:31;25.50;;;13.83;;
2748;SDS011;1382;52.142;11.618;2024-03-06T08:13:00;24.20;;;14.27;;
2748;SDS011;1382;52.142;11.618;2024-03-06T08:15:30;30.57;;;15.03;;
2748;SDS011;1382;52.142;11.618;2024-03-06T08:17:59;27.60;;;13.97;;
2748;SDS011;1382;52.142;11.618;2024-03-06T08:20:32;25.60;;;16.50;;
2748;SDS011;1382;52.142;11.618;2024-03-06T08:23:01;22.80;;;15.40;;
2748;SDS011;1382;52.142;11.618;2024-03-06T08:25:36;28.17;;;14.93;;
2748;SDS011;1382;52.142;11.618;2024-03-06T08:28:25;28.10;;;12.07;;
2748;SDS011;1382;52.142;11.618;2024-03-06T08:31:02;21.57;;;12.23;;
2748;SDS011;1382;52.142;11.618;2024-03-06T08:33:33;25.90;;;15.17;;
2748;SDS011;1382;52.142;11.618;2024-03-06T08:36:19;22.33;;;14.37;;
2748;SDS011;1382;52.142;11.618;2024-03-06T08:38:47;30.93;;;15.37;;
2748;SDS011;1382;52.142;11.618;2024-03-06T08:41:24;26.53;;;16.87;;
2748;SDS011;1382;52.142;11.618;2024-03-06T08:43:56;25.53;;;14.20;;
2748;SDS011;1382;52.142;11.618;2024-03-06T08:46:27;25.70;;;14.10;;
2748;SDS011;1382;52.142;11.618;2024-03-06T08:49:04;28.10;;;15.20;;
2748;SDS011;1382;52.142;11.618;2024-03-06T08:51:40;18.03;;;12.30;;
2748;SDS011;1382;52.142;11.618;2024-03-06T08:54:09;28.40;;;14.57;;
2748;SDS011;1382;52.142;11.618;2024-03-06T08:56:48;24.63;;;14.70;;
2748;SDS011;1382;52.142;11.618;2024-03-06T08:59:19;20.83;;;13.10;;
2748;SDS011;1382;52.142;11.618;2024-03-06T09:01:53;24.00;;;14.20;;
2748;SDS011;1382;52.142;11.618;2024-03-06T09:04:31;26.93;;;15.07;;
2748;SDS011;1382;52.142;11.618;2024-03-06T09:07:03;16.50;;;9.47;;
2748;SDS011;1382;52.142;11.618;2024-03-06T09:09:41;21.27;;;13.80;;
2748;SDS011;1382;52.142;11.618;2024-03-06T09:12:13;25.40;;;14.00;;
2748;SDS011;1382;52.142;11.618;2024-03-06T09:14:46;24.20;;;13.70;;
2748;SDS011;1382;52.142;11.618;2024-03-06T09:17:19;19.43;;;12.90;;
2748;SDS011;1382;52.142;11.618;2024-03-06T09:19:57;25.33;;;14.80;;
2748;SDS011;1382;52.142;11.618;2024-03-06T09:22:40;21.27;;;13.90;;
2748;SDS011;1382;52.142;11.618;2024-03-06T09:25:20;21.40;;;14.20;;
2748;SDS011;1382;52.142;11.618;2024-03-06T09:28:29;19.30;;;7.83;;
2748;SDS011;1382;52.142;11.618;2024-03-06T09:31:40;23.90;;;12.50;;
2748;SDS011;1382;52.142;11.618;2024-03-06T09:34:07;20.37;;;12.83;;
2748;SDS011;1382;52.142;11.618;2024-03-06T09:36:34;23.83;;;13.23;;
2748;SDS011;1382;52.142;11.618;2024-03-06T09:39:17;21.67;;;13.27;;
2748;SDS011;1382;52.142;11.618;2024-03-06T09:42:07;19.03;;;11.43;;
2748;SDS011;1382;52.142;11.618;2024-03-06T09:44:50;16.87;;;10.77;;
2748;SDS011;1382;52.142;11.618;2024-03-06T09:47:24;21.93;;;11.47;;
2748;SDS011;1382;52.142;11.618;2024-03-06T09:49:57;19.57;;;10.83;;
2748;SDS011;1382;52.142;11.618;2024-03-06T09:52:29;21.13;;;12.97;;
2748;SDS011;1382;52.142;11.618;2024-03-06T09:55:11;12.97;;;7.67;;
2748;SDS011;1382;52.142;11.618;2024-03-06T09:57:41;21.03;;;12.53;;
2748;SDS011;1382;52.142;11.618;2024-03-06T10:00:27;19.00;;;10.73;;
2748;SDS011;1382;52.142;11.618;2024-03-06T10:05:51;19.53;;;11.90;;
2748;SDS011;1382;52.142;11.618;2024-03-06T10:08:26;22.50;;;9.10;;
2748;SDS011;1382;52.142;11.618;2024-03-06T10:11:06;15.43;;;7.87;;
2748;SDS011;1382;52.142;11.618;2024-03-06T10:13:39;15.53;;;10.23;;
2748;SDS011;1382;52.142;11.618;2024-03-06T10:16:24;16.30;;;10.80;;
2748;SDS011;1382;52.142;11.618;2024-03-06T10:19:23;17.47;;;10.93;;
2748;SDS011;1382;52.142;11.618;2024-03-06T10:24:59;22.23;;;11.67;;
2748;SDS011;1382;52.142;11.618;2024-03-06T10:27:28;19.57;;;9.90;;
2748;SDS011;1382;52.142;11.618;2024-03-06T10:30:09;16.23;;;9.93;;
2748;SDS011;1382;52.142;11.618;2024-03-06T10:32:50;14.47;;;7.97;;
2748;SDS011;1382;52.142;11.618;2024-03-06T10:35:29;16.63;;;9.73;;
2748;SDS011;1382;52.142;11.618;2024-03-06T10:38:07;18.97;;;10.80;;
2748;SDS011;1382;52.142;11.618;2024-03-06T10:40:48;11.83;;;7.70;;
2748;SDS011;1382;52.142;11.618;2024-03-06T10:43:28;17.27;;;9.57;;
2748;SDS011;1382;52.142;11.618;2024-03-06T10:46:11;14.60;;;9.90;;
2748;SDS011;1382;52.142;11.618;2024-03-06T10:48:53;16.30;;;8.80;;
2748;SDS011;1382;52.142;11.618;2024-03-06T10:51:35;16.43;;;11.93;;
2748;SDS011;1382;52.142;11.618;2024-03-06T10:54:19;15.47;;;11.50;;
2748;SDS011;1382;52.142;11.618;2024-03-06T10:57:03;13.50;;;9.20;;
2748;SDS011;1382;52.142;11.618;2024-03-06T10:59:59;13.77;;;10.43;;
2748;SDS011;1382;52.142;11.618;2024-03-06T11:02:49;15.83;;;9.17;;
2748;SDS011;1382;52.142;11.618;2024-03-06T11:05:37;18.60;;;11.63;;
2748;SDS011;1382;52.142;11.618;2024-03-06T11:08:27;17.07;;;12.57;;
2748;SDS011;1382;52.142;11.618;2024-03-06T11:11:24;16.43;;;10.40;;
2748;SDS011;1382;52.142;11.618;2024-03-06T11:14:08;19.40;;;12.80;;
2748;SDS011;1382;52.142;11.618;2024-03-06T11:16:59;16.20;;;12.03;;
2748;SDS011;1382;52.142;11.618;2024-03-06T11:23:07;18.07;;;14.00;;
2748;SDS011;1382;52.142;11.618;2024-03-06T11:28:40;17.03;;;12.67;;
2748;SDS011;1382;52.142;11.618;2024-03-06T11:31:31;24.53;;;14.30;;
2748;SDS011;1382;52.142;11.618;2024-03-06T11:34:11;15.43;;;11.10;;
2748;SDS011;1382;52.142;11.618;2024-03-06T11:37:02;17.53;;;9.60;;
2748;SDS011;1382;52.142;11.618;2024-03-06T11:39:59;13.57;;;9.37;;
2748;SDS011;1382;52.142;11.618;2024-03-06T11:42:49;14.73;;;11.10;;
2748;SDS011;1382;52.142;11.618;2024-03-06T11:45:33;19.20;;;13.40;;
2748;SDS011;1382;52.142;11.618;2024-03-06T11:48:28;16.17;;;12.50;;
2748;SDS011;1382;52.142;11.618;2024-03-06T11:51:06;19.13;;;12.37;;
2748;SDS011;1382;52.142;11.618;2024-03-06T11:54:04;15.17;;;11.33;;
2748;SDS011;1382;52.142;11.618;2024-03-06T11:56:45;16.27;;;11.90;;
2748;SDS011;1382;52.142;11.618;2024-03-06T11:59:22;18.80;;;14.50;;
2748;SDS011;1382;52.142;11.618;2024-03-06T12:02:09;17.80;;;13.60;;
2748;SDS011;1382;52.142;11.618;2024-03-06T12:04:50;19.10;;;11.63;;
2748;SDS011;1382;52.142;11.618;2024-03-06T12:08:06;16.63;;;12.90;;
2748;SDS011;1382;52.142;11.618;2024-03-06T12:10:46;16.23;;;14.50;;
2748;SDS011;1382;52.142;11.618;2024-03-06T12:19:43;17.10;;;10.43;;
2748;SDS011;1382;52.142;11.618;2024-03-06T12:22:18;16.33;;;10.70;;
2748;SDS011;1382;52.142;11.618;2024-03-06T12:24:45;16.30;;;11.10;;
2748;SDS011;1382;52.142;11.618;2024-03-06T12:27:21;18.73;;;13.27;;
2748;SDS011;1382;52.142;11.618;2024-03-06T12:30:09;20.83;;;13.60;;
2748;SDS011;1382;52.142;11.618;2024-03-06T12:32:44;18.83;;;12.63;;
2748;SDS011;1382;52.142;11.618;2024-03-06T12:35:23;15.90;;;12.30;;
2748;SDS011;1382;52.142;11.618;2024-03-06T12:38:13;15.00;;;11.30;;
2748;SDS011;1382;52.142;11.618;2024-03-06T12:41:02;16.10;;;10.40;;
2748;SDS011;1382;52.142;11.618;2024-03-06T12:43:36;11.83;;;9.07;;
2748;SDS011;1382;52.142;11.618;2024-03-06T12:46:04;19.97;;;12.50;;
2748;SDS011;1382;52.142;11.618;2024-03-06T12:48:37;14.53;;;10.70;;
2748;SDS011;1382;52.142;11.618;2024-03-06T12:51:09;15.77;;;11.53;;
2748;SDS011;1382;52.142;11.618;2024-03-06T12:53:39;16.27;;;11.33;;
2748;SDS011;1382;52.142;11.618;2024-03-06T12:56:09;16.63;;;12.00;;
2748;SDS011;1382;52.142;11.618;2024-03-06T12:58:36;14.23;;;10.17;;
2748;SDS011;1382;52.142;11.618;2024-03-06T13:01:06;11.57;;;8.03;;
2748;SDS011;1382;52.142;11.618;2024-03-06T13:03:33;14.83;;;10.67;;
2748;SDS011;1382;52.142;11.618;2024-03-06T13:06:02;12.43;;;9.93;;
2748;SDS011;1382;52.142;11.618;2024-03-06T13:08:29;14.80;;;8.77;;
2748;SDS011;1382;52.142;11.618;2024-03-06T13:10:58;10.87;;;9.00;;
2748;SDS011;1382;52.142;11.618;2024-03-06T13:13:29;14.10;;;9.93;;
2748;SDS011;1382;52.142;11.618;2024-03-06T13:15:57;10.93;;;8.77;;
2748;SDS011;1382;52.142;11.618;2024-03-06T13:18:26;15.40;;;10.40;;
2748;SDS011;1382;52.142;11.618;2024-03-06T13:20:56;12.17;;;9.27;;
2748;SDS011;1382;52.142;11.618;2024-03-06T13:23:23;18.90;;;10.00;;
2748;SDS011;1382;52.142;11.618;2024-03-06T13:25:52;11.70;;;8.87;;
2748;SDS011;1382;52.142;11.618;2024-03-06T13:28:21;15.70;;;10.60;;
2748;SDS011;1382;52.142;11.618;2024-03-06T13:30:48;10.87;;;9.20;;
2748;SDS011;1382;52.142;11.618;2024-03-06T13:33:15;14.30;;;10.03;;
2748;SDS011;1382;52.142;11.618;2024-03-06T13:35:42;15.00;;;9.50;;
2748;SDS011;1382;52.142;11.618;2024-03-06T13:38:11;14.03;;;10.87;;
2748;SDS011;1382;52.142;11.618;2024-03-06T13:40:38;15.70;;;9.70;;
2748;SDS011;1382;52.142;11.618;2024-03-06T13:43:05;14.43;;;9.70;;
2748;SDS011;1382;52.142;11.618;2024-03-06T13:45:32;15.40;;;10.80;;
2748;SDS011;1382;52.142;11.618;2024-03-06T13:47:58;17.20;;;10.83;;
2748;SDS011;1382;52.142;11.618;2024-03-06T13:50:25;17.00;;;12.77;;
2748;SDS011;1382;52.142;11.618;2024-03-06T13:52:53;18.17;;;11.37;;
2748;SDS011;1382;52.142;11.618;2024-03-06T13:55:22;13.23;;;10.83;;
2748;SDS011;1382;52.142;11.618;2024-03-06T13:57:52;15.47;;;10.77;;
2748;SDS011;1382;52.142;11.618;2024-03-06T14:00:19;18.37;;;12.53;;
2748;SDS011;1382;52.142;11.618;2024-03-06T14:02:55;12.10;;;7.57;;
2748;SDS011;1382;52.142;11.618;2024-03-06T14:05:22;18.07;;;12.07;;
2748;SDS011;1382;52.142;11.618;2024-03-06T14:07:59;15.90;;;12.90;;
2748;SDS011;1382;52.142;11.618;2024-03-06T14:10:27;13.67;;;11.37;;
2748;SDS011;1382;52.142;11.618;2024-03-06T14:12:54;25.77;;;13.30;;
2748;SDS011;1382;52.142;11.618;2024-03-06T14:15:24;15.93;;;10.43;;
2748;SDS011;1382;52.142;11.618;2024-03-06T14:17:51;12.40;;;9.77;;
2748;SDS011;1382;52.142;11.618;2024-03-06T14:20:21;14.60;;;10.70;;
2748;SDS011;1382;52.142;11.618;2024-03-06T14:22:50;12.77;;;10.27;;
2748;SDS011;1382;52.142;11.618;2024-03-06T14:25:20;14.50;;;11.50;;
2748;SDS011;1382;52.142;11.618;2024-03-06T14:27:56;13.27;;;11.53;;
2748;SDS011;1382;52.142;11.618;2024-03-06T14:30:29;19.13;;;10.87;;
2748;SDS011;1382;52.142;11.618;2024-03-06T14:33:01;17.77;;;11.10;;
2748;SDS011;1382;52.142;11.618;2024-03-06T14:35:41;13.90;;;10.87;;
2748;SDS011;1382;52.142;11.618;2024-03-06T14:38:10;12.10;;;6.80;;
2748;SDS011;1382;52.142;11.618;2024-03-06T14:40:43;17.10;;;10.13;;
2748;SDS011;1382;52.142;11.618;2024-03-06T14:43:10;12.97;;;9.30;;
2748;SDS011;1382;52.142;11.618;2024-03-06T14:45:37;12.27;;;9.63;;
2748;SDS011;1382;52.142;11.618;2024-03-06T14:48:04;12.30;;;9.20;;
2748;SDS011;1382;52.142;11.618;2024-03-06T14:50:31;23.20;;;10.97;;
2748;SDS011;1382;52.142;11.618;2024-03-06T14:52:58;13.53;;;9.97;;
2748;SDS011;1382;52.142;11.618;2024-03-06T14:55:25;11.77;;;8.03;;
2748;SDS011;1382;52.142;11.618;2024-03-06T14:57:53;9.97;;;7.70;;
2748;SDS011;1382;52.142;11.618;2024-03-06T15:00:22;10.93;;;8.27;;
2748;SDS011;1382;52.142;11.618;2024-03-06T15:02:51;11.23;;;8.30;;
2748;SDS011;1382;52.142;11.618;2024-03-06T15:05:18;11.30;;;8.13;;
2748;SDS011;1382;52.142;11.618;2024-03-06T15:07:47;10.30;;;8.00;;
2748;SDS011;1382;52.142;11.618;2024-03-06T15:10:17;9.40;;;7.40;;
2748;SDS011;1382;52.142;11.618;2024-03-06T15:12:46;18.50;;;9.13;;
2748;SDS011;1382;52.142;11.618;2024-03-06T15:15:14;11.40;;;8.50;;
2748;SDS011;1382;52.142;11.618;2024-03-06T15:17:41;10.30;;;8.00;;
2748;SDS011;1382;52.142;11.618;2024-03-06T15:20:09;10.20;;;7.30;;
2748;SDS011;1382;52.142;11.618;2024-03-06T15:22:36;11.83;;;7.50;;
2748;SDS011;1382;52.142;11.618;2024-03-06T15:25:03;9.47;;;7.80;;
2748;SDS011;1382;52.142;11.618;2024-03-06T15:27:32;9.67;;;8.30;;
2748;SDS011;1382;52.142;11.618;2024-03-06T15:29:59;10.20;;;7.33;;
2748;SDS011;1382;52.142;11.618;2024-03-06T15:32:28;11.03;;;7.40;;
2748;SDS011;1382;52.142;11.618;2024-03-06T15:34:57;11.47;;;8.20;;
2748;SDS011;1382;52.142;11.618;2024-03-06T15:37:24;13.50;;;7.97;;
2748;SDS011;1382;52.142;11.618;2024-03-06T15:39:51;8.97;;;7.10;;
2748;SDS011;1382;52.142;11.618;2024-03-06T15:42:19;12.90;;;8.43;;
2748;SDS011;1382;52.142;11.618;2024-03-06T15:44:52;10.37;;;7.03;;
2748;SDS011;1382;52.142;11.618;2024-03-06T15:47:20;14.00;;;7.80;;
2748;SDS011;1382;52.142;11.618;2024-03-06T15:49:50;10.93;;;8.33;;
2748;SDS011;1382;52.142;11.618;2024-03-06T15:52:20;10.07;;;7.10;;
2748;SDS011;1382;52.142;11.618;2024-03-06T15:55:03;12.53;;;7.47;;
2748;SDS011;1382;52.142;11.618;2024-03-06T15:57:34;10.10;;;7.87;;
2748;SDS011;1382;52.142;11.618;2024-03-06T16:00:04;10.40;;;6.80;;
2748;SDS011;1382;52.142;11.618;2024-03-06T16:02:33;21.30;;;11.50;;
2748;SDS011;1382;52.142;11.618;2024-03-06T16:05:01;10.20;;;7.23;;
2748;SDS011;1382;52.142;11.618;2024-03-06T16:07:28;11.67;;;8.80;;
2748;SDS011;1382;52.142;11.618;2024-03-06T16:09:55;11.00;;;8.80;;
2748;SDS011;1382;52.142;11.618;2024-03-06T16:12:21;9.20;;;7.33;;
2748;SDS011;1382;52.142;11.618;2024-03-06T16:14:48;7.87;;;6.70;;
2748;SDS011;1382;52.142;11.618;2024-03-06T16:17:15;8.30;;;7.47;;
2748;SDS011;1382;52.142;11.618;2024-03-06T16:19:42;7.63;;;4.57;;
2748;SDS011;1382;52.142;11.618;2024-03-06T16:22:13;10.33;;;6.83;;
2748;SDS011;1382;52.142;11.618;2024-03-06T16:24:40;5.03;;;4.30;;
2748;SDS011;1382;52.142;11.618;2024-03-06T16:27:07;11.83;;;8.00;;
2748;SDS011;1382;52.142;11.618;2024-03-06T16:29:38;10.50;;;6.87;;
2748;SDS011;1382;52.142;11.618;2024-03-06T16:32:09;10.40;;;8.10;;
2748;SDS011;1382;52.142;11.618;2024-03-06T16:34:36;10.67;;;7.17;;
2748;SDS011;1382;52.142;11.618;2024-03-06T16:37:03;8.40;;;5.80;;
2748;SDS011;1382;52.142;11.618;2024-03-06T16:39:36;13.03;;;8.77;;
2748;SDS011;1382;52.142;11.618;2024-03-06T16:42:13;13.00;;;7.47;;
2748;SDS011;1382;52.142;11.618;2024-03-06T16:51:17;14.50;;;10.27;;
2748;SDS011;1382;52.142;11.618;2024-03-06T16:53:44;5.37;;;4.77;;
2748;SDS011;1382;52.142;11.618;2024-03-06T16:56:12;14.83;;;10.80;;
2748;SDS011;1382;52.142;11.618;2024-03-06T16:58:39;12.73;;;9.93;;
2748;SDS011;1382;52.142;11.618;2024-03-06T17:01:07;14.03;;;8.87;;
2748;SDS011;1382;52.142;11.618;2024-03-06T17:03:34;5.73;;;3.30;;
2748;SDS011;1382;52.142;11.618;2024-03-06T17:06:00;12.80;;;9.07;;
2748;SDS011;1382;52.142;11.618;2024-03-06T17:08:27;10.00;;;7.10;;
2748;SDS011;1382;52.142;11.618;2024-03-06T17:10:54;10.90;;;7.10;;
2748;SDS011;1382;52.142;11.618;2024-03-06T17:13:22;8.67;;;6.80;;
2748;SDS011;1382;52.142;11.618;2024-03-06T17:15:49;8.63;;;6.40;;
2748;SDS011;1382;52.142;11.618;2024-03-06T17:18:16;12.07;;;8.00;;
2748;SDS011;1382;52.142;11.618;2024-03-06T17:20:46;8.77;;;5.77;;
2748;SDS011;1382;52.142;11.618;2024-03-06T17:23:12;8.77;;;6.73;;
2748;SDS011;1382;52.142;11.618;2024-03-06T17:25:40;11.47;;;8.50;;
2748;SDS011;1382;52.142;11.618;2024-03-06T17:28:06;11.47;;;8.87;;
2748;SDS011;1382;52.142;11.618;2024-03-06T17:30:35;11.00;;;7.77;;
2748;SDS011;1382;52.142;11.618;2024-03-06T17:33:02;11.93;;;8.00;;
2748;SDS011;1382;52.142;11.618;2024-03-06T17:35:29;8.30;;;6.40;;
2748;SDS011;1382;52.142;11.618;2024-03-06T17:37:56;8.63;;;6.47;;
2748;SDS011;1382;52.142;11.618;2024-03-06T17:40:23;12.70;;;7.67;;
2748;SDS011;1382;52.142;11.618;2024-03-06T17:42:50;10.40;;;6.70;;
2748;SDS011;1382;52.142;11.618;2024-03-06T17:45:16;8.87;;;7.07;;
2748;SDS011;1382;52.142;11.618;2024-03-06T17:47:45;8.97;;;6.53;;
2748;SDS011;1382;52.142;11.618;2024-03-06T17:50:12;7.90;;;6.00;;
2748;SDS011;1382;52.142;11.618;2024-03-06T17:52:39;9.20;;;7.87;;
2748;SDS011;1382;52.142;11.618;2024-03-06T17:55:06;8.77;;;6.20;;
2748;SDS011;1382;52.142;11.618;2024-03-06T17:57:33;6.50;;;5.70;;
2748;SDS011;1382;52.142;11.618;2024-03-06T18:00:00;11.00;;;7.97;;
2748;SDS011;1382;52.142;11.618;2024-03-06T18:02:27;9.57;;;7.20;;
2748;SDS011;1382;52.142;11.618;2024-03-06T18:04:55;10.60;;;9.20;;
2748;SDS011;1382;52.142;11.618;2024-03-06T18:07:22;17.33;;;9.33;;
2748;SDS011;1382;52.142;11.618;2024-03-06T18:09:49;14.00;;;9.63;;
2748;SDS011;1382;52.142;11.618;2024-03-06T18:12:16;11.03;;;7.80;;
2748;SDS011;1382;52.142;11.618;2024-03-06T18:14:43;10.00;;;8.17;;
2748;SDS011;1382;52.142;11.618;2024-03-06T18:17:10;13.33;;;9.00;;
2748;SDS011;1382;52.142;11.618;2024-03-06T18:19:37;13.87;;;9.37;;
2748;SDS011;1382;52.142;11.618;2024-03-06T18:22:05;14.37;;;8.00;;
2748;SDS011;1382;52.142;11.618;2024-03-06T18:24:32;14.10;;;7.47;;
2748;SDS011;1382;52.142;11.618;2024-03-06T18:26:59;12.77;;;7.93;;
2748;SDS011;1382;52.142;11.618;2024-03-06T18:29:26;11.70;;;8.70;;
2748;SDS011;1382;52.142;11.618;2024-03-06T18:31:52;11.67;;;8.03;;
2748;SDS011;1382;52.142;11.618;2024-03-06T18:34:19;12.07;;;9.17;;
2748;SDS011;1382;52.142;11.618;2024-03-06T18:36:46;8.47;;;6.07;;
2748;SDS011;1382;52.142;11.618;2024-03-06T18:39:14;9.57;;;6.93;;
2748;SDS011;1382;52.142;11.618;2024-03-06T18:41:41;9.73;;;6.83;;
2748;SDS011;1382;52.142;11.618;2024-03-06T18:44:08;13.83;;;8.40;;
2748;SDS011;1382;52.142;11.618;2024-03-06T18:46:37;11.10;;;8.40;;